sensor_id;sensor_type;location;lat;lon;timestamp;temperature;humidity
74940;HTU21D;63505;45.226;37.908;2023-01-15T00:00:20;2.85;77.59
74940;HTU21D;63505;45.226;37.908;2023-01-15T00:02:45;2.83;77.61
74940;HTU21D;63505;45.226;37.908;2023-01-15T00:05:11;2.79;77.66
74940;HTU21D;63505;45.226;37.908;2023-01-15T00:07:37;2.73;77.72
74940;HTU21D;63505;45.226;37.908;2023-01-15T00:10:03;2.72;77.77
74940;HTU21D;63505;45.226;37.908;2023-01-15T00:12:29;2.70;77.80
74940;HTU21D;63505;45.226;37.908;2023-01-15T00:14:55;2.66;77.83
74940;HTU21D;63505;45.226;37.908;2023-01-15T00:17:22;2.62;77.87
74940;HTU21D;63505;45.226;37.908;2023-01-15T00:19:48;2.50;77.95
74940;HTU21D;63505;45.226;37.908;2023-01-15T00:22:14;2.41;78.34
74940;HTU21D;63505;45.226;37.908;2023-01-15T00:24:40;2.40;78.50
74940;HTU21D;63505;45.226;37.908;2023-01-15T00:27:30;2.41;78.56
74940;HTU21D;63505;45.226;37.908;2023-01-15T00:30:08;2.44;78.51
74940;HTU21D;63505;45.226;37.908;2023-01-15T00:32:36;2.45;78.47
74940;HTU21D;63505;45.226;37.908;2023-01-15T00:35:02;2.47;78.45
74940;HTU21D;63505;45.226;37.908;2023-01-15T00:37:28;2.47;78.40
74940;HTU21D;63505;45.226;37.908;2023-01-15T00:39:54;2.47;78.41
74940;HTU21D;63505;45.226;37.908;2023-01-15T00:42:20;2.46;78.41
74940;HTU21D;63505;45.226;37.908;2023-01-15T00:44:45;2.44;78.46
74940;HTU21D;63505;45.226;37.908;2023-01-15T00:47:11;2.41;78.49
74940;HTU21D;63505;45.226;37.908;2023-01-15T00:49:41;2.40;78.57
74940;HTU21D;63505;45.226;37.908;2023-01-15T00:52:07;2.40;78.61
74940;HTU21D;63505;45.226;37.908;2023-01-15T00:54:34;2.41;78.62
74940;HTU21D;63505;45.226;37.908;2023-01-15T00:56:59;2.39;78.65
74940;HTU21D;63505;45.226;37.908;2023-01-15T00:59:26;2.36;78.71
74940;HTU21D;63505;45.226;37.908;2023-01-15T01:01:52;2.35;78.78
74940;HTU21D;63505;45.226;37.908;2023-01-15T01:04:18;2.30;78.82
74940;HTU21D;63505;45.226;37.908;2023-01-15T01:06:44;2.27;78.86
74940;HTU21D;63505;45.226;37.908;2023-01-15T01:09:14;2.16;78.92
74940;HTU21D;63505;45.226;37.908;2023-01-15T01:11:40;2.11;79.08
74940;HTU21D;63505;45.226;37.908;2023-01-15T01:14:07;2.09;79.29
74940;HTU21D;63505;45.226;37.908;2023-01-15T01:16:38;2.09;79.37
74940;HTU21D;63505;45.226;37.908;2023-01-15T01:19:09;2.11;79.38
74940;HTU21D;63505;45.226;37.908;2023-01-15T01:21:37;2.12;79.35
74940;HTU21D;63505;45.226;37.908;2023-01-15T01:24:04;2.13;79.30
74940;HTU21D;63505;45.226;37.908;2023-01-15T01:26:31;2.08;79.31
74940;HTU21D;63505;45.226;37.908;2023-01-15T01:28:57;2.05;79.46
74940;HTU21D;63505;45.226;37.908;2023-01-15T01:31:24;2.05;79.46
74940;HTU21D;63505;45.226;37.908;2023-01-15T01:33:52;2.06;79.53
74940;HTU21D;63505;45.226;37.908;2023-01-15T01:36:18;2.07;79.53
74940;HTU21D;63505;45.226;37.908;2023-01-15T01:38:47;2.06;79.48
74940;HTU21D;63505;45.226;37.908;2023-01-15T01:41:16;2.03;79.55
74940;HTU21D;63505;45.226;37.908;2023-01-15T01:46:30;1.97;79.88
74940;HTU21D;63505;45.226;37.908;2023-01-15T01:49:01;2.00;79.89
74940;HTU21D;63505;45.226;37.908;2023-01-15T01:51:32;2.02;79.89
74940;HTU21D;63505;45.226;37.908;2023-01-15T01:54:01;2.02;79.86
74940;HTU21D;63505;45.226;37.908;2023-01-15T01:56:28;2.07;79.88
74940;HTU21D;63505;45.226;37.908;2023-01-15T01:58:55;2.09;79.88
74940;HTU21D;63505;45.226;37.908;2023-01-15T02:01:23;2.10;79.86
74940;HTU21D;63505;45.226;37.908;2023-01-15T02:03:51;2.10;79.88
74940;HTU21D;63505;45.226;37.908;2023-01-15T02:06:17;2.11;79.88
74940;HTU21D;63505;45.226;37.908;2023-01-15T02:08:43;2.11;79.92
74940;HTU21D;63505;45.226;37.908;2023-01-15T02:11:16;2.12;79.98
74940;HTU21D;63505;45.226;37.908;2023-01-15T02:13:54;2.12;80.03
74940;HTU21D;63505;45.226;37.908;2023-01-15T02:25:17;2.12;80.33
74940;HTU21D;63505;45.226;37.908;2023-01-15T02:27:48;2.11;80.34
74940;HTU21D;63505;45.226;37.908;2023-01-15T02:30:28;2.11;80.39
74940;HTU21D;63505;45.226;37.908;2023-01-15T02:33:17;2.13;80.41
74940;HTU21D;63505;45.226;37.908;2023-01-15T02:36:04;2.14;80.43
74940;HTU21D;63505;45.226;37.908;2023-01-15T02:38:44;2.17;80.43
74940;HTU21D;63505;45.226;37.908;2023-01-15T02:41:14;2.19;80.42
74940;HTU21D;63505;45.226;37.908;2023-01-15T02:43:49;2.20;80.40
74940;HTU21D;63505;45.226;37.908;2023-01-15T02:46:17;2.20;80.38
74940;HTU21D;63505;45.226;37.908;2023-01-15T02:48:46;2.22;80.39
74940;HTU21D;63505;45.226;37.908;2023-01-15T02:51:15;2.23;80.41
74940;HTU21D;63505;45.226;37.908;2023-01-15T02:53:45;2.22;80.44
74940;HTU21D;63505;45.226;37.908;2023-01-15T02:56:17;2.23;80.49
74940;HTU21D;63505;45.226;37.908;2023-01-15T02:58:51;2.23;80.52
74940;HTU21D;63505;45.226;37.908;2023-01-15T03:01:31;2.21;80.58
74940;HTU21D;63505;45.226;37.908;2023-01-15T03:06:47;2.20;80.69
74940;HTU21D;63505;45.226;37.908;2023-01-15T03:09:17;2.20;80.72
74940;HTU21D;63505;45.226;37.908;2023-01-15T03:11:55;2.21;80.74
74940;HTU21D;63505;45.226;37.908;2023-01-15T03:14:38;2.22;80.78
74940;HTU21D;63505;45.226;37.908;2023-01-15T03:17:47;2.22;80.81
74940;HTU21D;63505;45.226;37.908;2023-01-15T03:20:25;2.19;80.85
74940;HTU21D;63505;45.226;37.908;2023-01-15T03:22:57;2.20;80.85
74940;HTU21D;63505;45.226;37.908;2023-01-15T03:25:29;2.19;80.88
74940;HTU21D;63505;45.226;37.908;2023-01-15T03:28:00;2.20;80.92
74940;HTU21D;63505;45.226;37.908;2023-01-15T03:30:27;2.21;80.94
74940;HTU21D;63505;45.226;37.908;2023-01-15T03:32:54;2.20;80.94
74940;HTU21D;63505;45.226;37.908;2023-01-15T03:35:50;2.21;80.92
74940;HTU21D;63505;45.226;37.908;2023-01-15T03:38:31;2.22;80.91
74940;HTU21D;63505;45.226;37.908;2023-01-15T03:41:18;2.22;80.89
74940;HTU21D;63505;45.226;37.908;2023-01-15T03:44:13;2.21;80.91
74940;HTU21D;63505;45.226;37.908;2023-01-15T03:47:12;2.20;80.91
74940;HTU21D;63505;45.226;37.908;2023-01-15T03:53:11;2.19;80.90
74940;HTU21D;63505;45.226;37.908;2023-01-15T03:55:57;2.17;80.91
74940;HTU21D;63505;45.226;37.908;2023-01-15T04:01:02;2.14;80.98
74940;HTU21D;63505;45.226;37.908;2023-01-15T04:03:31;2.13;81.01
74940;HTU21D;63505;45.226;37.908;2023-01-15T04:06:00;2.12;81.03
74940;HTU21D;63505;45.226;37.908;2023-01-15T04:08:31;2.11;81.07
74940;HTU21D;63505;45.226;37.908;2023-01-15T04:11:00;2.11;81.11
74940;HTU21D;63505;45.226;37.908;2023-01-15T04:13:30;2.10;81.14
74940;HTU21D;63505;45.226;37.908;2023-01-15T04:15:56;2.10;81.17
74940;HTU21D;63505;45.226;37.908;2023-01-15T04:18:24;2.11;81.19
74940;HTU21D;63505;45.226;37.908;2023-01-15T04:20:50;2.11;81.20
74940;HTU21D;63505;45.226;37.908;2023-01-15T04:23:16;2.10;81.19
74940;HTU21D;63505;45.226;37.908;2023-01-15T04:25:42;2.10;81.22
74940;HTU21D;63505;45.226;37.908;2023-01-15T04:28:09;2.09;81.22
74940;HTU21D;63505;45.226;37.908;2023-01-15T04:30:35;2.07;81.23
74940;HTU21D;63505;45.226;37.908;2023-01-15T04:33:02;2.07;81.27
74940;HTU21D;63505;45.226;37.908;2023-01-15T04:35:28;2.06;81.29
74940;HTU21D;63505;45.226;37.908;2023-01-15T04:37:58;2.06;81.27
74940;HTU21D;63505;45.226;37.908;2023-01-15T04:40:24;2.05;81.30
74940;HTU21D;63505;45.226;37.908;2023-01-15T04:43:12;2.05;81.30
74940;HTU21D;63505;45.226;37.908;2023-01-15T04:45:58;2.03;81.30
74940;HTU21D;63505;45.226;37.908;2023-01-15T04:48:24;2.02;81.32
74940;HTU21D;63505;45.226;37.908;2023-01-15T04:50:51;2.02;81.34
74940;HTU21D;63505;45.226;37.908;2023-01-15T04:53:17;2.05;81.33
74940;HTU21D;63505;45.226;37.908;2023-01-15T04:55:43;2.03;81.29
74940;HTU21D;63505;45.226;37.908;2023-01-15T04:58:08;2.02;81.30
74940;HTU21D;63505;45.226;37.908;2023-01-15T05:00:34;2.02;81.31
74940;HTU21D;63505;45.226;37.908;2023-01-15T05:03:00;2.01;81.31
74940;HTU21D;63505;45.226;37.908;2023-01-15T05:05:26;2.01;81.33
74940;HTU21D;63505;45.226;37.908;2023-01-15T05:07:52;2.01;81.31
74940;HTU21D;63505;45.226;37.908;2023-01-15T05:10:18;2.02;81.34
74940;HTU21D;63505;45.226;37.908;2023-01-15T05:12:44;2.02;81.32
74940;HTU21D;63505;45.226;37.908;2023-01-15T05:15:10;2.05;81.32
74940;HTU21D;63505;45.226;37.908;2023-01-15T05:17:36;2.05;81.33
74940;HTU21D;63505;45.226;37.908;2023-01-15T05:20:02;2.06;81.35
74940;HTU21D;63505;45.226;37.908;2023-01-15T05:22:28;2.08;81.33
74940;HTU21D;63505;45.226;37.908;2023-01-15T05:24:53;2.09;81.33
74940;HTU21D;63505;45.226;37.908;2023-01-15T05:27:19;2.10;81.32
74940;HTU21D;63505;45.226;37.908;2023-01-15T05:29:45;2.11;81.32
74940;HTU21D;63505;45.226;37.908;2023-01-15T05:32:12;2.11;81.29
74940;HTU21D;63505;45.226;37.908;2023-01-15T05:34:38;2.12;81.30
74940;HTU21D;63505;45.226;37.908;2023-01-15T05:37:04;2.13;81.32
74940;HTU21D;63505;45.226;37.908;2023-01-15T05:39:29;2.14;81.30
74940;HTU21D;63505;45.226;37.908;2023-01-15T05:41:55;2.16;81.31
74940;HTU21D;63505;45.226;37.908;2023-01-15T05:44:24;2.19;81.29
74940;HTU21D;63505;45.226;37.908;2023-01-15T05:46:52;2.22;81.30
74940;HTU21D;63505;45.226;37.908;2023-01-15T05:49:21;2.24;81.27
74940;HTU21D;63505;45.226;37.908;2023-01-15T05:51:47;2.25;81.29
74940;HTU21D;63505;45.226;37.908;2023-01-15T05:54:22;2.34;81.37
74940;HTU21D;63505;45.226;37.908;2023-01-15T05:56:48;2.43;81.23
74940;HTU21D;63505;45.226;37.908;2023-01-15T05:59:16;2.44;81.17
74940;HTU21D;63505;45.226;37.908;2023-01-15T06:01:42;2.47;81.10
74940;HTU21D;63505;45.226;37.908;2023-01-15T06:04:10;2.47;81.06
74940;HTU21D;63505;45.226;37.908;2023-01-15T06:06:36;2.45;81.10
74940;HTU21D;63505;45.226;37.908;2023-01-15T06:09:03;2.45;81.13
74940;HTU21D;63505;45.226;37.908;2023-01-15T06:11:29;2.44;81.14
74940;HTU21D;63505;45.226;37.908;2023-01-15T06:13:55;2.43;81.19
74940;HTU21D;63505;45.226;37.908;2023-01-15T06:16:21;2.43;81.22
74940;HTU21D;63505;45.226;37.908;2023-01-15T06:18:47;2.43;81.27
74940;HTU21D;63505;45.226;37.908;2023-01-15T06:21:13;2.45;81.27
74940;HTU21D;63505;45.226;37.908;2023-01-15T06:23:40;2.44;81.32
74940;HTU21D;63505;45.226;37.908;2023-01-15T06:26:12;2.46;81.33
74940;HTU21D;63505;45.226;37.908;2023-01-15T06:28:38;2.50;81.35
74940;HTU21D;63505;45.226;37.908;2023-01-15T06:31:09;2.53;81.31
74940;HTU21D;63505;45.226;37.908;2023-01-15T06:33:35;2.53;81.32
74940;HTU21D;63505;45.226;37.908;2023-01-15T06:36:09;2.58;81.33
74940;HTU21D;63505;45.226;37.908;2023-01-15T06:38:36;2.59;81.30
74940;HTU21D;63505;45.226;37.908;2023-01-15T06:41:03;2.62;81.29
74940;HTU21D;63505;45.226;37.908;2023-01-15T06:43:29;2.62;81.29
74940;HTU21D;63505;45.226;37.908;2023-01-15T06:46:15;2.66;81.30
74940;HTU21D;63505;45.226;37.908;2023-01-15T06:49:00;2.68;81.30
74940;HTU21D;63505;45.226;37.908;2023-01-15T06:51:26;2.69;81.27
74940;HTU21D;63505;45.226;37.908;2023-01-15T06:53:52;2.69;81.30
74940;HTU21D;63505;45.226;37.908;2023-01-15T06:56:18;2.70;81.28
74940;HTU21D;63505;45.226;37.908;2023-01-15T06:58:44;2.71;81.34
74940;HTU21D;63505;45.226;37.908;2023-01-15T07:01:12;2.75;81.36
74940;HTU21D;63505;45.226;37.908;2023-01-15T07:03:38;2.76;81.33
74940;HTU21D;63505;45.226;37.908;2023-01-15T07:06:09;2.80;81.33
74940;HTU21D;63505;45.226;37.908;2023-01-15T07:08:36;2.82;81.30
74940;HTU21D;63505;45.226;37.908;2023-01-15T07:11:03;2.81;81.36
74940;HTU21D;63505;45.226;37.908;2023-01-15T07:13:30;2.84;81.43
74940;HTU21D;63505;45.226;37.908;2023-01-15T07:16:00;2.90;81.40
74940;HTU21D;63505;45.226;37.908;2023-01-15T07:18:28;2.93;81.38
74940;HTU21D;63505;45.226;37.908;2023-01-15T07:20:55;2.93;81.47
74940;HTU21D;63505;45.226;37.908;2023-01-15T07:23:23;2.94;81.74
74940;HTU21D;63505;45.226;37.908;2023-01-15T07:25:51;2.96;81.86
74940;HTU21D;63505;45.226;37.908;2023-01-15T07:28:18;3.02;81.91
74940;HTU21D;63505;45.226;37.908;2023-01-15T07:30:44;3.06;81.90
74940;HTU21D;63505;45.226;37.908;2023-01-15T07:33:10;3.06;82.03
74940;HTU21D;63505;45.226;37.908;2023-01-15T07:35:37;3.08;82.17
74940;HTU21D;63505;45.226;37.908;2023-01-15T07:38:03;3.09;82.23
74940;HTU21D;63505;45.226;37.908;2023-01-15T07:40:29;3.14;82.25
74940;HTU21D;63505;45.226;37.908;2023-01-15T07:42:55;3.16;82.25
74940;HTU21D;63505;45.226;37.908;2023-01-15T07:45:39;3.23;82.28
74940;HTU21D;63505;45.226;37.908;2023-01-15T07:48:25;3.29;82.32
74940;HTU21D;63505;45.226;37.908;2023-01-15T07:51:10;3.40;82.30
74940;HTU21D;63505;45.226;37.908;2023-01-15T07:53:35;3.43;82.15
74940;HTU21D;63505;45.226;37.908;2023-01-15T07:56:01;3.47;82.23
74940;HTU21D;63505;45.226;37.908;2023-01-15T07:58:27;3.55;82.19
74940;HTU21D;63505;45.226;37.908;2023-01-15T08:00:53;3.61;82.16
74940;HTU21D;63505;45.226;37.908;2023-01-15T08:03:19;3.68;82.07
74940;HTU21D;63505;45.226;37.908;2023-01-15T08:05:44;3.68;81.99
74940;HTU21D;63505;45.226;37.908;2023-01-15T08:08:17;3.69;82.10
74940;HTU21D;63505;45.226;37.908;2023-01-15T08:10:43;3.73;82.07
74940;HTU21D;63505;45.226;37.908;2023-01-15T08:13:27;3.74;82.01
74940;HTU21D;63505;45.226;37.908;2023-01-15T08:16:12;3.78;82.05
74940;HTU21D;63505;45.226;37.908;2023-01-15T08:18:38;3.89;82.04
74940;HTU21D;63505;45.226;37.908;2023-01-15T08:21:04;4.00;81.96
74940;HTU21D;63505;45.226;37.908;2023-01-15T08:23:30;4.07;81.79
74940;HTU21D;63505;45.226;37.908;2023-01-15T08:26:00;4.13;81.70
74940;HTU21D;63505;45.226;37.908;2023-01-15T08:28:26;4.17;81.57
74940;HTU21D;63505;45.226;37.908;2023-01-15T08:30:52;4.19;81.54
74940;HTU21D;63505;45.226;37.908;2023-01-15T08:33:18;4.22;81.36
74940;HTU21D;63505;45.226;37.908;2023-01-15T08:35:44;4.19;81.30
74940;HTU21D;63505;45.226;37.908;2023-01-15T08:38:10;4.21;81.36
74940;HTU21D;63505;45.226;37.908;2023-01-15T08:40:36;4.24;81.16
74940;HTU21D;63505;45.226;37.908;2023-01-15T08:43:22;4.27;81.24
74940;HTU21D;63505;45.226;37.908;2023-01-15T08:45:48;4.35;81.14
74940;HTU21D;63505;45.226;37.908;2023-01-15T08:48:14;4.42;81.09
74940;HTU21D;63505;45.226;37.908;2023-01-15T08:50:40;4.53;80.98
74940;HTU21D;63505;45.226;37.908;2023-01-15T08:53:06;4.62;80.84
74940;HTU21D;63505;45.226;37.908;2023-01-15T08:55:32;4.64;80.69
74940;HTU21D;63505;45.226;37.908;2023-01-15T08:57:58;4.67;80.65
74940;HTU21D;63505;45.226;37.908;2023-01-15T09:00:23;4.74;80.64
74940;HTU21D;63505;45.226;37.908;2023-01-15T09:02:49;4.74;80.46
74940;HTU21D;63505;45.226;37.908;2023-01-15T09:05:16;4.66;80.49
74940;HTU21D;63505;45.226;37.908;2023-01-15T09:07:42;4.68;80.56
74940;HTU21D;63505;45.226;37.908;2023-01-15T09:10:08;4.71;80.43
74940;HTU21D;63505;45.226;37.908;2023-01-15T09:12:34;4.74;80.46
74940;HTU21D;63505;45.226;37.908;2023-01-15T09:15:00;4.79;80.40
74940;HTU21D;63505;45.226;37.908;2023-01-15T09:17:26;4.82;80.25
74940;HTU21D;63505;45.226;37.908;2023-01-15T09:19:52;4.75;80.17
74940;HTU21D;63505;45.226;37.908;2023-01-15T09:22:18;4.75;80.30
74940;HTU21D;63505;45.226;37.908;2023-01-15T09:24:44;4.81;80.26
74940;HTU21D;63505;45.226;37.908;2023-01-15T09:27:11;4.87;80.11
74940;HTU21D;63505;45.226;37.908;2023-01-15T09:29:37;4.88;80.07
74940;HTU21D;63505;45.226;37.908;2023-01-15T09:32:03;4.91;80.00
74940;HTU21D;63505;45.226;37.908;2023-01-15T09:34:29;4.95;79.98
74940;HTU21D;63505;45.226;37.908;2023-01-15T09:36:54;5.04;79.95
74940;HTU21D;63505;45.226;37.908;2023-01-15T09:39:20;5.15;79.82
74940;HTU21D;63505;45.226;37.908;2023-01-15T09:45:05;5.33;79.53
74940;HTU21D;63505;45.226;37.908;2023-01-15T09:47:56;5.39;79.40
74940;HTU21D;63505;45.226;37.908;2023-01-15T09:55:33;5.46;79.17
74940;HTU21D;63505;45.226;37.908;2023-01-15T09:58:02;5.43;79.15
74940;HTU21D;63505;45.226;37.908;2023-01-15T10:00:33;5.46;79.15
74940;HTU21D;63505;45.226;37.908;2023-01-15T10:05:40;5.45;79.10
74940;HTU21D;63505;45.226;37.908;2023-01-15T10:08:15;5.59;79.22
74940;HTU21D;63505;45.226;37.908;2023-01-15T10:11:00;5.69;78.94
74940;HTU21D;63505;45.226;37.908;2023-01-15T10:15:56;5.65;78.92
74940;HTU21D;63505;45.226;37.908;2023-01-15T10:18:24;5.65;78.95
74940;HTU21D;63505;45.226;37.908;2023-01-15T10:26:53;5.80;78.75
74940;HTU21D;63505;45.226;37.908;2023-01-15T10:32:22;5.85;78.47
74940;HTU21D;63505;45.226;37.908;2023-01-15T10:37:41;5.97;78.95
74940;HTU21D;63505;45.226;37.908;2023-01-15T10:45:54;6.31;77.61
74940;HTU21D;63505;45.226;37.908;2023-01-15T10:51:16;6.02;77.84
74940;HTU21D;63505;45.226;37.908;2023-01-15T10:56:41;5.87;78.13
74940;HTU21D;63505;45.226;37.908;2023-01-15T10:59:32;5.84;78.10
74940;HTU21D;63505;45.226;37.908;2023-01-15T11:02:00;5.81;78.13
74940;HTU21D;63505;45.226;37.908;2023-01-15T11:04:30;5.87;78.09
74940;HTU21D;63505;45.226;37.908;2023-01-15T11:06:59;5.87;77.93
74940;HTU21D;63505;45.226;37.908;2023-01-15T11:09:26;5.82;77.89
74940;HTU21D;63505;45.226;37.908;2023-01-15T11:12:19;5.87;77.77
74940;HTU21D;63505;45.226;37.908;2023-01-15T11:14:46;5.79;77.62
74940;HTU21D;63505;45.226;37.908;2023-01-15T11:17:51;5.59;77.62
74940;HTU21D;63505;45.226;37.908;2023-01-15T11:20:42;5.46;77.60
74940;HTU21D;63505;45.226;37.908;2023-01-15T11:23:12;5.28;77.62
74940;HTU21D;63505;45.226;37.908;2023-01-15T11:25:53;5.25;77.73
74940;HTU21D;63505;45.226;37.908;2023-01-15T11:28:40;5.34;77.79
74940;HTU21D;63505;45.226;37.908;2023-01-15T11:31:08;5.41;77.62
74940;HTU21D;63505;45.226;37.908;2023-01-15T11:33:34;5.43;77.53
74940;HTU21D;63505;45.226;37.908;2023-01-15T11:36:04;5.50;77.38
74940;HTU21D;63505;45.226;37.908;2023-01-15T11:38:44;5.50;77.26
74940;HTU21D;63505;45.226;37.908;2023-01-15T11:41:29;5.55;77.18
74940;HTU21D;63505;45.226;37.908;2023-01-15T11:44:15;5.57;77.07
74940;HTU21D;63505;45.226;37.908;2023-01-15T11:47:00;5.62;77.01
74940;HTU21D;63505;45.226;37.908;2023-01-15T11:49:52;5.60;76.89
74940;HTU21D;63505;45.226;37.908;2023-01-15T11:52:41;5.61;76.93
74940;HTU21D;63505;45.226;37.908;2023-01-15T11:55:18;5.64;76.85
74940;HTU21D;63505;45.226;37.908;2023-01-15T11:57:44;5.66;76.83
74940;HTU21D;63505;45.226;37.908;2023-01-15T12:00:23;5.70;76.76
74940;HTU21D;63505;45.226;37.908;2023-01-15T12:02:54;5.72;76.66
74940;HTU21D;63505;45.226;37.908;2023-01-15T12:05:28;5.69;76.60
74940;HTU21D;63505;45.226;37.908;2023-01-15T12:07:56;5.65;76.57
74940;HTU21D;63505;45.226;37.908;2023-01-15T12:13:44;5.50;76.76
74940;HTU21D;63505;45.226;37.908;2023-01-15T12:19:02;5.48;76.77
74940;HTU21D;63505;45.226;37.908;2023-01-15T12:35:29;5.38;76.75
74940;HTU21D;63505;45.226;37.908;2023-01-15T12:38:02;5.35;76.73
74940;HTU21D;63505;45.226;37.908;2023-01-15T12:40:50;5.47;76.65
74940;HTU21D;63505;45.226;37.908;2023-01-15T12:43:24;5.40;76.55
74940;HTU21D;63505;45.226;37.908;2023-01-15T12:46:16;5.34;76.63
74940;HTU21D;63505;45.226;37.908;2023-01-15T12:51:34;5.25;76.60
74940;HTU21D;63505;45.226;37.908;2023-01-15T12:54:11;5.20;76.62
74940;HTU21D;63505;45.226;37.908;2023-01-15T12:56:54;5.09;76.57
74940;HTU21D;63505;45.226;37.908;2023-01-15T13:04:49;4.73;76.83
74940;HTU21D;63505;45.226;37.908;2023-01-15T13:07:33;4.67;76.89
74940;HTU21D;63505;45.226;37.908;2023-01-15T13:12:36;4.57;76.93
74940;HTU21D;63505;45.226;37.908;2023-01-15T13:15:03;4.52;76.95
74940;HTU21D;63505;45.226;37.908;2023-01-15T13:20:51;4.46;76.89
74940;HTU21D;63505;45.226;37.908;2023-01-15T13:26:52;4.41;76.87
74940;HTU21D;63505;45.226;37.908;2023-01-15T13:32:00;4.32;76.87
74940;HTU21D;63505;45.226;37.908;2023-01-15T13:35:01;4.23;76.96
74940;HTU21D;63505;45.226;37.908;2023-01-15T13:37:39;4.21;76.99
74940;HTU21D;63505;45.226;37.908;2023-01-15T13:40:26;4.18;76.99
74940;HTU21D;63505;45.226;37.908;2023-01-15T13:42:55;4.18;77.01
74940;HTU21D;63505;45.226;37.908;2023-01-15T13:45:22;4.15;76.96
74940;HTU21D;63505;45.226;37.908;2023-01-15T13:47:56;4.10;77.00
74940;HTU21D;63505;45.226;37.908;2023-01-15T13:50:31;4.05;77.01
74940;HTU21D;63505;45.226;37.908;2023-01-15T13:53:25;4.01;77.05
74940;HTU21D;63505;45.226;37.908;2023-01-15T13:55:58;3.97;77.08
74940;HTU21D;63505;45.226;37.908;2023-01-15T13:58:27;3.92;77.09
74940;HTU21D;63505;45.226;37.908;2023-01-15T14:17:49;3.59;77.27
74940;HTU21D;63505;45.226;37.908;2023-01-15T14:36:45;3.26;77.60
74940;HTU21D;63505;45.226;37.908;2023-01-15T14:45:31;3.24;77.62
74940;HTU21D;63505;45.226;37.908;2023-01-15T14:48:00;3.15;77.59
74940;HTU21D;63505;45.226;37.908;2023-01-15T15:01:13;2.97;77.85
74940;HTU21D;63505;45.226;37.908;2023-01-15T15:06:27;3.33;78.05
74940;HTU21D;63505;45.226;37.908;2023-01-15T15:08:59;3.72;77.58
74940;HTU21D;63505;45.226;37.908;2023-01-15T15:11:40;3.71;77.16
74940;HTU21D;63505;45.226;37.908;2023-01-15T15:14:26;3.58;77.16
74940;HTU21D;63505;45.226;37.908;2023-01-15T15:16:53;3.45;77.33
74940;HTU21D;63505;45.226;37.908;2023-01-15T15:21:54;3.25;77.60
74940;HTU21D;63505;45.226;37.908;2023-01-15T15:24:26;3.16;77.74
74940;HTU21D;63505;45.226;37.908;2023-01-15T15:26:54;3.09;77.85
74940;HTU21D;63505;45.226;37.908;2023-01-15T15:29:20;3.02;77.95
74940;HTU21D;63505;45.226;37.908;2023-01-15T15:31:56;2.99;78.04
74940;HTU21D;63505;45.226;37.908;2023-01-15T15:34:33;2.95;78.01
74940;HTU21D;63505;45.226;37.908;2023-01-15T15:37:05;2.88;78.07
74940;HTU21D;63505;45.226;37.908;2023-01-15T15:39:48;2.82;78.18
74940;HTU21D;63505;45.226;37.908;2023-01-15T15:42:26;2.78;78.20
74940;HTU21D;63505;45.226;37.908;2023-01-15T15:45:30;2.74;78.28
74940;HTU21D;63505;45.226;37.908;2023-01-15T15:48:28;2.72;78.24
74940;HTU21D;63505;45.226;37.908;2023-01-15T15:56:33;2.64;78.27
74940;HTU21D;63505;45.226;37.908;2023-01-15T15:59:00;2.64;78.32
74940;HTU21D;63505;45.226;37.908;2023-01-15T16:01:26;2.61;78.29
74940;HTU21D;63505;45.226;37.908;2023-01-15T16:03:54;2.61;78.29
74940;HTU21D;63505;45.226;37.908;2023-01-15T16:06:22;2.60;78.31
74940;HTU21D;63505;45.226;37.908;2023-01-15T16:08:57;2.68;78.37
74940;HTU21D;63505;45.226;37.908;2023-01-15T16:11:31;2.69;78.27
74940;HTU21D;63505;45.226;37.908;2023-01-15T16:13:59;2.69;78.24
74940;HTU21D;63505;45.226;37.908;2023-01-15T16:16:29;2.65;78.25
74940;HTU21D;63505;45.226;37.908;2023-01-15T16:18:57;2.64;78.27
74940;HTU21D;63505;45.226;37.908;2023-01-15T16:21:38;2.61;78.30
74940;HTU21D;63505;45.226;37.908;2023-01-15T16:24:07;2.60;78.30
74940;HTU21D;63505;45.226;37.908;2023-01-15T16:26:37;2.57;78.29
74940;HTU21D;63505;45.226;37.908;2023-01-15T16:29:13;2.52;78.37
74940;HTU21D;63505;45.226;37.908;2023-01-15T16:31:40;2.50;78.43
74940;HTU21D;63505;45.226;37.908;2023-01-15T16:34:18;2.46;78.46
74940;HTU21D;63505;45.226;37.908;2023-01-15T16:36:46;2.43;78.53
74940;HTU21D;63505;45.226;37.908;2023-01-15T16:39:38;2.39;78.56
74940;HTU21D;63505;45.226;37.908;2023-01-15T16:42:39;2.35;78.56
74940;HTU21D;63505;45.226;37.908;2023-01-15T16:45:19;2.29;78.56
74940;HTU21D;63505;45.226;37.908;2023-01-15T16:50:38;2.29;78.66
74940;HTU21D;63505;45.226;37.908;2023-01-15T16:53:44;2.27;78.66
74940;HTU21D;63505;45.226;37.908;2023-01-15T16:59:18;2.22;78.66
74940;HTU21D;63505;45.226;37.908;2023-01-15T17:02:10;2.22;78.65
74940;HTU21D;63505;45.226;37.908;2023-01-15T17:04:39;2.15;78.61
74940;HTU21D;63505;45.226;37.908;2023-01-15T17:07:31;2.03;78.68
74940;HTU21D;63505;45.226;37.908;2023-01-15T17:09:56;1.96;78.89
74940;HTU21D;63505;45.226;37.908;2023-01-15T17:14:48;2.02;78.97
74940;HTU21D;63505;45.226;37.908;2023-01-15T17:19:52;2.10;78.84
74940;HTU21D;63505;45.226;37.908;2023-01-15T17:22:25;2.11;78.79
74940;HTU21D;63505;45.226;37.908;2023-01-15T17:24:57;2.10;78.79
74940;HTU21D;63505;45.226;37.908;2023-01-15T17:27:25;2.15;78.76
74940;HTU21D;63505;45.226;37.908;2023-01-15T17:29:51;2.09;78.69
74940;HTU21D;63505;45.226;37.908;2023-01-15T17:32:32;2.06;78.72
74940;HTU21D;63505;45.226;37.908;2023-01-15T17:35:01;2.03;78.78
74940;HTU21D;63505;45.226;37.908;2023-01-15T17:37:27;2.02;78.80
74940;HTU21D;63505;45.226;37.908;2023-01-15T17:39:53;2.01;78.82
74940;HTU21D;63505;45.226;37.908;2023-01-15T17:42:19;2.00;78.82
74940;HTU21D;63505;45.226;37.908;2023-01-15T17:44:46;1.93;78.82
74940;HTU21D;63505;45.226;37.908;2023-01-15T17:47:12;1.85;78.85
74940;HTU21D;63505;45.226;37.908;2023-01-15T17:49:38;1.78;78.98
74940;HTU21D;63505;45.226;37.908;2023-01-15T17:52:06;1.70;79.00
74940;HTU21D;63505;45.226;37.908;2023-01-15T17:54:33;1.65;79.14
74940;HTU21D;63505;45.226;37.908;2023-01-15T17:57:17;1.63;79.21
74940;HTU21D;63505;45.226;37.908;2023-01-15T18:00:02;1.61;79.22
74940;HTU21D;63505;45.226;37.908;2023-01-15T18:02:47;1.58;79.21
74940;HTU21D;63505;45.226;37.908;2023-01-15T18:05:32;1.54;79.17
74940;HTU21D;63505;45.226;37.908;2023-01-15T18:08:04;1.41;79.08
74940;HTU21D;63505;45.226;37.908;2023-01-15T18:10:32;1.28;79.29
74940;HTU21D;63505;45.226;37.908;2023-01-15T18:12:58;1.26;79.45
74940;HTU21D;63505;45.226;37.908;2023-01-15T18:15:27;1.26;79.48
74940;HTU21D;63505;45.226;37.908;2023-01-15T18:17:53;1.21;79.42
74940;HTU21D;63505;45.226;37.908;2023-01-15T18:20:19;1.18;79.55
74940;HTU21D;63505;45.226;37.908;2023-01-15T18:22:45;1.16;79.53
74940;HTU21D;63505;45.226;37.908;2023-01-15T18:25:11;1.16;79.56
74940;HTU21D;63505;45.226;37.908;2023-01-15T18:27:38;1.13;79.55
74940;HTU21D;63505;45.226;37.908;2023-01-15T18:30:13;1.10;79.49